createdAt,value
2018-05-27T00:00:53.792Z,17.40
2018-05-27T00:03:56.290Z,17.35
2018-05-27T00:06:58.754Z,17.24
2018-05-27T00:10:01.263Z,17.18
2018-05-27T00:13:03.852Z,17.35
2018-05-27T00:16:07.507Z,17.32
2018-05-27T00:19:10.713Z,17.21
2018-05-27T00:22:13.245Z,17.07
2018-05-27T00:25:15.726Z,17.04
2018-05-27T00:28:19.186Z,16.94
2018-05-27T00:31:21.668Z,16.85
2018-05-27T00:34:24.168Z,16.78
2018-05-27T00:37:26.638Z,16.78
2018-05-27T00:40:29.201Z,16.73
2018-05-27T00:43:31.742Z,16.64
2018-05-27T00:46:34.227Z,16.62
2018-05-27T00:49:36.711Z,16.57
2018-05-27T00:52:39.278Z,16.55
2018-05-27T00:55:41.715Z,16.56
2018-05-27T00:58:44.195Z,16.46
2018-05-27T01:01:46.640Z,16.45
2018-05-27T01:04:49.143Z,16.37
2018-05-27T01:07:51.657Z,16.46
2018-05-27T01:10:54.135Z,16.40
2018-05-27T01:13:56.744Z,16.33
2018-05-27T01:16:59.332Z,16.27
2018-05-27T01:20:01.812Z,16.20
2018-05-27T01:23:04.327Z,16.11
2018-05-27T01:26:06.809Z,16.12
2018-05-27T01:29:09.264Z,15.97
2018-05-27T01:32:11.751Z,15.88
2018-05-27T01:35:14.196Z,15.91
2018-05-27T01:38:16.782Z,15.87
2018-05-27T01:41:19.260Z,15.77
2018-05-27T01:44:21.722Z,15.62
2018-05-27T01:47:24.197Z,15.49
2018-05-27T01:50:26.683Z,15.45
2018-05-27T01:53:29.246Z,15.36
2018-05-27T01:56:31.778Z,15.30
2018-05-27T01:59:34.339Z,15.24
2018-05-27T02:02:36.827Z,15.18
2018-05-27T02:05:39.304Z,15.14
2018-05-27T02:08:41.743Z,15.13
2018-05-27T02:11:44.218Z,15.13
2018-05-27T02:14:46.652Z,15.10
2018-05-27T02:17:49.133Z,15.03
2018-05-27T02:20:51.583Z,14.99
2018-05-27T02:23:54.078Z,14.94
2018-05-27T02:26:56.523Z,14.96
2018-05-27T02:29:58.996Z,14.93
2018-05-27T02:33:01.435Z,14.93
2018-05-27T02:36:03.912Z,14.91
2018-05-27T02:39:06.390Z,14.85
2018-05-27T02:42:08.920Z,14.91
2018-05-27T02:45:11.388Z,14.85
2018-05-27T02:48:13.845Z,14.82
2018-05-27T02:51:16.319Z,14.74
2018-05-27T02:54:18.794Z,14.74
2018-05-27T02:57:21.302Z,14.73
2018-05-27T03:00:23.787Z,14.77
2018-05-27T03:03:26.224Z,14.75
2018-05-27T03:06:28.710Z,14.65
2018-05-27T03:09:31.248Z,14.54
2018-05-27T03:12:33.734Z,14.52
2018-05-27T03:15:36.248Z,14.56
2018-05-27T03:18:38.720Z,14.58
2018-05-27T03:21:41.150Z,14.64
2018-05-27T03:24:43.675Z,14.58
2018-05-27T03:27:46.110Z,14.72
2018-05-27T03:30:48.603Z,14.67
2018-05-27T03:33:51.108Z,14.59
2018-05-27T03:36:53.597Z,14.56
2018-05-27T03:39:56.287Z,14.67
2018-05-27T03:42:58.750Z,14.79
2018-05-27T03:46:01.282Z,15.14
2018-05-27T03:49:03.757Z,15.54
2018-05-27T03:52:06.229Z,15.86
2018-05-27T03:55:08.769Z,16.07
2018-05-27T03:58:11.239Z,16.33
2018-05-27T04:01:14.667Z,16.24
2018-05-27T04:04:28.714Z,15.90
2018-05-27T04:07:42.890Z,15.72
2018-05-27T04:10:45.344Z,15.49
2018-05-27T04:13:47.826Z,15.33
2018-05-27T04:16:50.286Z,15.13
2018-05-27T04:19:52.829Z,15.12
2018-05-27T04:22:55.393Z,15.24
2018-05-27T04:25:57.857Z,15.24
2018-05-27T04:29:00.372Z,15.39
2018-05-27T04:32:02.871Z,15.60
2018-05-27T04:35:05.299Z,15.55
2018-05-27T04:38:07.764Z,15.61
2018-05-27T04:41:10.243Z,15.90
2018-05-27T04:44:12.694Z,16.39
2018-05-27T04:47:15.183Z,17.23
2018-05-27T04:50:17.674Z,17.68
2018-05-27T04:53:20.130Z,18.27
2018-05-27T04:56:22.621Z,19.87
2018-05-27T04:59:25.176Z,20.84
2018-05-27T05:02:27.664Z,21.43
2018-05-27T05:05:30.175Z,22.26
2018-05-27T05:08:32.658Z,22.17
2018-05-27T05:11:35.099Z,22.79
2018-05-27T05:14:37.625Z,23.42
2018-05-27T05:17:40.119Z,23.25
2018-05-27T05:20:42.625Z,22.52
2018-05-27T05:23:45.127Z,23.09
2018-05-27T05:26:47.570Z,23.01
2018-05-27T05:29:50.100Z,24.06
2018-05-27T05:32:52.618Z,23.75
2018-05-27T05:35:55.055Z,22.97
2018-05-27T05:38:57.519Z,22.36
2018-05-27T05:42:00.083Z,22.23
2018-05-27T05:45:02.547Z,23.25
2018-05-27T05:48:05.082Z,23.57
2018-05-27T05:51:07.674Z,24.08
2018-05-27T05:54:10.215Z,24.18
2018-05-27T05:57:12.715Z,24.66
2018-05-27T06:00:15.192Z,25.46
2018-05-27T06:03:17.685Z,24.86
2018-05-27T06:06:20.203Z,24.88
2018-05-27T06:09:22.642Z,25.49
2018-05-27T06:12:25.151Z,25.15
2018-05-27T06:15:27.656Z,25.21
2018-05-27T06:18:30.160Z,25.16
2018-05-27T06:21:32.620Z,25.16
2018-05-27T06:24:35.103Z,25.02
2018-05-27T06:27:37.707Z,25.28
2018-05-27T06:30:40.222Z,25.07
2018-05-27T06:33:42.697Z,25.21
2018-05-27T06:36:45.137Z,25.32
2018-05-27T06:39:47.644Z,26.08
2018-05-27T06:42:50.092Z,25.90
2018-05-27T06:45:52.672Z,25.83
2018-05-27T06:48:55.152Z,26.02
2018-05-27T06:51:57.641Z,26.09
2018-05-27T06:55:00.100Z,24.55
2018-05-27T06:58:02.615Z,23.65
2018-05-27T07:01:05.052Z,22.78
2018-05-27T07:04:07.553Z,22.22
2018-05-27T07:07:10.132Z,21.66
2018-05-27T07:10:12.630Z,21.79
2018-05-27T07:13:15.111Z,21.79
2018-05-27T07:16:17.571Z,21.84
2018-05-27T07:19:20.046Z,21.93
2018-05-27T07:22:22.513Z,22.07
2018-05-27T07:25:24.988Z,21.84
2018-05-27T07:28:27.471Z,21.79
2018-05-27T07:31:29.975Z,21.35
2018-05-27T07:34:32.484Z,21.53
2018-05-27T07:37:35.012Z,21.79
2018-05-27T07:40:37.517Z,21.82
2018-05-27T07:43:40.042Z,21.99
2018-05-27T07:46:42.563Z,22.07
2018-05-27T07:49:45.011Z,22.02
2018-05-27T07:52:47.545Z,21.88
2018-05-27T07:55:50.028Z,22.08
2018-05-27T07:58:52.553Z,22.24
2018-05-27T08:01:55.108Z,21.94
2018-05-27T08:04:57.653Z,22.09
2018-05-27T08:08:00.158Z,21.88
2018-05-27T08:11:02.718Z,21.85
2018-05-27T08:14:05.250Z,22.04
2018-05-27T08:17:07.765Z,22.19
2018-05-27T08:20:10.244Z,22.39
2018-05-27T08:23:12.743Z,22.32
2018-05-27T08:26:15.337Z,22.49
2018-05-27T08:29:17.851Z,22.82
2018-05-27T08:32:20.325Z,22.81
2018-05-27T08:35:22.804Z,23.10
2018-05-27T08:38:25.364Z,22.80
2018-05-27T08:41:27.868Z,22.56
2018-05-27T08:44:30.434Z,22.82
2018-05-27T08:47:33.033Z,22.95
2018-05-27T08:50:35.437Z,23.02
2018-05-27T08:53:37.941Z,22.81
2018-05-27T08:56:40.533Z,22.85
2018-05-27T08:59:43.158Z,23.11
2018-05-27T09:02:45.660Z,23.29
2018-05-27T09:05:48.173Z,23.11
2018-05-27T09:08:50.661Z,23.17
2018-05-27T09:11:53.228Z,23.26
2018-05-27T09:14:55.692Z,23.27
2018-05-27T09:17:58.217Z,23.22
2018-05-27T09:21:00.799Z,23.58
2018-05-27T09:24:03.448Z,23.49
2018-05-27T09:27:05.912Z,23.51
2018-05-27T09:30:08.409Z,23.61
2018-05-27T09:33:10.912Z,23.73
2018-05-27T09:36:13.463Z,23.75
2018-05-27T09:39:16.011Z,23.80
2018-05-27T09:42:18.427Z,23.95
2018-05-27T09:45:21.073Z,23.98
2018-05-27T09:48:24.648Z,24.15
2018-05-27T09:51:27.253Z,24.20
2018-05-27T09:54:29.639Z,24.38
2018-05-27T09:57:32.257Z,24.44
2018-05-27T10:00:34.753Z,24.33
2018-05-27T10:03:37.257Z,24.56
2018-05-27T10:06:39.772Z,24.39
2018-05-27T10:09:42.275Z,24.38
2018-05-27T10:12:44.842Z,24.32
2018-05-27T10:15:47.332Z,24.57
2018-05-27T10:18:49.900Z,24.63
2018-05-27T10:21:52.352Z,24.70
2018-05-27T10:24:54.945Z,24.78
2018-05-27T10:27:57.440Z,24.92
2018-05-27T10:31:00.676Z,24.90
2018-05-27T10:34:03.240Z,25.15
2018-05-27T10:37:05.743Z,25.23
2018-05-27T10:40:08.173Z,25.23
2018-05-27T10:43:10.749Z,25.28
2018-05-27T10:46:13.308Z,25.49
2018-05-27T10:49:15.893Z,25.39
2018-05-27T10:52:18.495Z,25.72
2018-05-27T10:55:21.078Z,25.30
2018-05-27T10:58:23.648Z,25.33
2018-05-27T11:01:26.113Z,25.34
2018-05-27T11:04:28.619Z,25.45
2018-05-27T11:07:31.104Z,25.62
2018-05-27T11:10:33.620Z,25.63
2018-05-27T11:13:36.135Z,25.88
2018-05-27T11:16:38.713Z,26.07
2018-05-27T11:19:41.165Z,25.66
2018-05-27T11:22:43.738Z,26.01
2018-05-27T11:25:46.246Z,25.89
2018-05-27T11:28:48.726Z,26.01
2018-05-27T11:31:51.322Z,26.10
2018-05-27T11:34:53.830Z,26.15
2018-05-27T11:37:56.374Z,26.21
2018-05-27T11:40:58.835Z,25.93
2018-05-27T11:44:01.379Z,26.01
2018-05-27T11:47:04.007Z,26.03
2018-05-27T11:50:06.505Z,26.06
2018-05-27T11:53:09.151Z,26.11
2018-05-27T11:56:11.681Z,26.16
2018-05-27T11:59:14.385Z,26.33
2018-05-27T12:02:16.838Z,26.73
2018-05-27T12:05:19.434Z,26.72
2018-05-27T12:08:21.931Z,26.83
2018-05-27T12:11:24.440Z,26.82
2018-05-27T12:14:27.002Z,26.57
2018-05-27T12:17:29.509Z,26.63
2018-05-27T12:20:32.016Z,26.38
2018-05-27T12:23:34.696Z,26.06
2018-05-27T12:26:37.249Z,26.31
2018-05-27T12:29:39.768Z,26.49
2018-05-27T12:32:42.272Z,26.67
2018-05-27T12:35:44.720Z,26.93
2018-05-27T12:38:47.303Z,26.95
2018-05-27T12:41:49.801Z,26.98
2018-05-27T12:44:52.333Z,26.90
2018-05-27T12:47:54.791Z,27.10
2018-05-27T12:50:57.345Z,27.47
2018-05-27T12:53:59.862Z,27.38
2018-05-27T12:57:02.363Z,27.34
2018-05-27T13:00:04.925Z,27.47
2018-05-27T13:03:07.455Z,27.57
2018-05-27T13:06:09.910Z,27.99
2018-05-27T13:09:12.436Z,27.97
2018-05-27T13:12:14.975Z,28.14
2018-05-27T13:15:17.467Z,27.55
2018-05-27T13:18:19.937Z,27.11
2018-05-27T13:21:22.456Z,27.19
2018-05-27T13:24:25.125Z,27.22
2018-05-27T13:27:27.591Z,27.27
2018-05-27T13:30:30.072Z,27.28
2018-05-27T13:33:32.537Z,27.49
2018-05-27T13:36:35.068Z,27.16
2018-05-27T13:39:37.537Z,27.20
2018-05-27T13:42:40.031Z,27.24
2018-05-27T13:45:42.497Z,27.65
2018-05-27T13:48:45.087Z,27.19
2018-05-27T13:51:47.675Z,27.17
2018-05-27T13:54:50.178Z,27.29
2018-05-27T13:57:52.650Z,27.10
2018-05-27T14:00:55.191Z,26.56
2018-05-27T14:03:57.696Z,26.64
2018-05-27T14:07:00.218Z,26.70
2018-05-27T14:10:02.766Z,26.83
2018-05-27T14:13:05.267Z,27.02
2018-05-27T14:16:07.749Z,27.29
2018-05-27T14:19:10.244Z,27.38
2018-05-27T14:22:12.725Z,27.47
2018-05-27T14:25:15.228Z,27.28
2018-05-27T14:28:17.716Z,27.10
2018-05-27T14:31:20.211Z,27.32
2018-05-27T14:34:22.708Z,27.21
2018-05-27T14:37:25.245Z,27.38
2018-05-27T14:40:27.732Z,27.73
2018-05-27T14:43:30.247Z,27.07
2018-05-27T14:46:32.741Z,26.84
2018-05-27T14:49:35.252Z,26.69
2018-05-27T14:52:37.726Z,26.38
2018-05-27T14:55:40.232Z,26.25
2018-05-27T14:58:42.751Z,26.04
2018-05-27T15:01:45.337Z,26.15
2018-05-27T15:04:47.858Z,26.22
2018-05-27T15:07:50.418Z,26.28
2018-05-27T15:10:52.978Z,26.52
2018-05-27T15:13:55.466Z,26.57
2018-05-27T15:16:57.978Z,26.72
2018-05-27T15:20:00.483Z,26.68
2018-05-27T15:23:02.976Z,26.77
2018-05-27T15:26:05.653Z,26.81
2018-05-27T15:29:08.166Z,26.72
2018-05-27T15:32:10.689Z,26.72
2018-05-27T15:35:13.229Z,26.90
2018-05-27T15:38:15.689Z,26.80
2018-05-27T15:41:18.198Z,26.80
2018-05-27T15:44:20.688Z,26.78
2018-05-27T15:47:23.197Z,26.76
2018-05-27T15:50:25.707Z,27.04
2018-05-27T15:53:28.202Z,27.22
2018-05-27T15:56:30.708Z,27.47
2018-05-27T15:59:33.190Z,27.24
2018-05-27T16:02:35.745Z,27.04
2018-05-27T16:05:38.350Z,26.85
2018-05-27T16:08:40.858Z,26.54
2018-05-27T16:11:43.343Z,26.36
2018-05-27T16:14:45.849Z,26.13
2018-05-27T16:17:48.359Z,26.10
2018-05-27T16:20:50.822Z,26.21
2018-05-27T16:23:53.347Z,26.09
2018-05-27T16:26:55.877Z,26.01
2018-05-27T16:29:58.413Z,25.80
2018-05-27T16:33:00.901Z,26.03
2018-05-27T16:36:03.401Z,25.87
2018-05-27T16:39:05.869Z,25.76
2018-05-27T16:42:08.424Z,25.39
2018-05-27T16:45:10.932Z,25.65
2018-05-27T16:48:13.386Z,25.50
2018-05-27T16:51:15.869Z,25.42
2018-05-27T16:54:18.348Z,25.22
2018-05-27T16:57:20.835Z,25.18
2018-05-27T17:00:23.303Z,25.02
2018-05-27T17:03:25.787Z,24.71
2018-05-27T17:06:28.244Z,24.65
2018-05-27T17:09:30.789Z,24.29
2018-05-27T17:12:33.382Z,23.39
2018-05-27T17:15:35.923Z,22.88
2018-05-27T17:18:38.407Z,22.67
2018-05-27T17:21:40.893Z,22.33
2018-05-27T17:24:43.382Z,22.29
2018-05-27T17:27:45.972Z,22.32
2018-05-27T17:30:48.440Z,22.35
2018-05-27T17:33:51.339Z,22.16
2018-05-27T17:36:53.813Z,21.99
2018-05-27T17:39:56.279Z,21.92
2018-05-27T17:42:58.785Z,21.80
2018-05-27T17:46:01.288Z,21.76
2018-05-27T17:49:03.805Z,21.38
2018-05-27T17:52:06.455Z,21.29
2018-05-27T17:55:08.952Z,21.22
2018-05-27T17:58:11.488Z,21.10
2018-05-27T18:01:13.955Z,21.05
2018-05-27T18:04:16.470Z,21.00
2018-05-27T18:07:19.050Z,21.03
2018-05-27T18:10:21.595Z,21.04
2018-05-27T18:13:24.109Z,20.98
2018-05-27T18:16:26.654Z,20.98
2018-05-27T18:19:29.148Z,20.96
2018-05-27T18:22:31.683Z,20.95
2018-05-27T18:25:34.850Z,20.95
2018-05-27T18:28:37.345Z,20.98
2018-05-27T18:31:39.982Z,20.99
2018-05-27T18:34:42.510Z,21.05
2018-05-27T18:37:45.063Z,20.98
2018-05-27T18:40:47.586Z,21.05
2018-05-27T18:43:50.731Z,21.07
2018-05-27T18:46:53.299Z,21.14
2018-05-27T18:49:55.793Z,21.21
2018-05-27T18:52:58.433Z,21.27
2018-05-27T18:56:00.919Z,21.18
2018-05-27T18:59:03.419Z,21.19
2018-05-27T19:02:05.966Z,21.15
2018-05-27T19:05:08.515Z,21.20
2018-05-27T19:08:11.045Z,21.15
2018-05-27T19:11:13.549Z,21.01
2018-05-27T19:14:16.031Z,20.91
2018-05-27T19:17:18.572Z,20.88
2018-05-27T19:20:21.090Z,20.81
2018-05-27T19:23:23.641Z,20.76
2018-05-27T19:26:26.183Z,20.74
2018-05-27T19:29:28.690Z,20.66
2018-05-27T19:32:31.206Z,20.60
2018-05-27T19:35:33.721Z,20.50
2018-05-27T19:38:36.256Z,20.55
2018-05-27T19:41:38.791Z,20.64
2018-05-27T19:44:41.323Z,20.76
2018-05-27T19:47:43.941Z,20.65
2018-05-27T19:50:46.444Z,20.75
2018-05-27T19:53:48.962Z,20.77
2018-05-27T19:56:51.426Z,20.79
2018-05-27T19:59:53.945Z,20.79
2018-05-27T20:02:56.435Z,20.76
2018-05-27T20:05:58.940Z,20.77
2018-05-27T20:09:01.487Z,20.68
2018-05-27T20:12:03.954Z,20.59
2018-05-27T20:15:06.552Z,20.53
2018-05-27T20:18:09.146Z,20.40
2018-05-27T20:21:11.684Z,20.30
2018-05-27T20:24:15.215Z,20.22
2018-05-27T20:27:17.756Z,20.15
2018-05-27T20:30:20.224Z,20.11
2018-05-27T20:33:22.735Z,20.03
2018-05-27T20:36:25.769Z,19.97
2018-05-27T20:39:28.430Z,19.90
2018-05-27T20:42:30.996Z,19.85
2018-05-27T20:45:33.549Z,19.80
2018-05-27T20:48:36.039Z,19.75
2018-05-27T20:51:38.557Z,19.75
2018-05-27T20:54:41.040Z,19.76
2018-05-27T20:57:43.704Z,19.63
2018-05-27T21:00:46.222Z,19.66
2018-05-27T21:03:48.744Z,19.58
2018-05-27T21:06:51.240Z,19.56
2018-05-27T21:09:53.840Z,19.58
2018-05-27T21:12:56.629Z,19.60
2018-05-27T21:15:59.124Z,19.55
2018-05-27T21:19:01.706Z,19.54
2018-05-27T21:22:04.203Z,19.51
2018-05-27T21:25:06.749Z,19.47
2018-05-27T21:28:09.263Z,19.42
2018-05-27T21:31:11.745Z,19.46
2018-05-27T21:34:14.205Z,19.40
2018-05-27T21:37:16.675Z,19.37
2018-05-27T21:40:19.276Z,19.27
2018-05-27T21:43:21.868Z,19.22
2018-05-27T21:46:24.361Z,19.22
2018-05-27T21:49:26.853Z,19.26
2018-05-27T21:52:29.331Z,19.24
2018-05-27T21:55:31.891Z,19.28
2018-05-27T21:58:34.380Z,19.37
2018-05-27T22:01:36.895Z,19.45
2018-05-27T22:04:39.390Z,19.44
2018-05-27T22:07:42.035Z,19.52
2018-05-27T22:10:44.696Z,19.51
2018-05-27T22:13:47.176Z,19.50
2018-05-27T22:16:49.730Z,19.53
2018-05-27T22:19:52.173Z,19.53
2018-05-27T22:22:54.690Z,19.52
2018-05-27T22:25:57.291Z,19.52
2018-05-27T22:28:59.791Z,19.60
2018-05-27T22:32:02.330Z,19.60
2018-05-27T22:35:04.820Z,19.73
2018-05-27T22:38:07.334Z,19.75
2018-05-27T22:41:09.820Z,19.68
2018-05-27T22:44:12.371Z,19.68
2018-05-27T22:47:14.866Z,19.63
2018-05-27T22:50:17.312Z,19.70
2018-05-27T22:53:19.786Z,19.67
2018-05-27T22:56:22.320Z,19.66
2018-05-27T22:59:24.816Z,19.71
2018-05-27T23:02:27.287Z,19.82
2018-05-27T23:05:29.816Z,19.85
2018-05-27T23:08:32.345Z,19.74
2018-05-27T23:11:34.830Z,19.75
2018-05-27T23:14:37.321Z,19.73
2018-05-27T23:17:39.861Z,19.66
2018-05-27T23:20:42.380Z,19.62
2018-05-27T23:23:44.891Z,19.65
2018-05-27T23:26:47.398Z,19.69
2018-05-27T23:29:49.885Z,19.70
2018-05-27T23:32:52.348Z,19.77
2018-05-27T23:35:54.871Z,19.96
2018-05-27T23:38:57.327Z,20.05
2018-05-27T23:41:59.825Z,20.06
2018-05-27T23:45:02.318Z,20.00
2018-05-27T23:48:04.811Z,19.98
2018-05-27T23:51:07.273Z,19.86
2018-05-27T23:54:09.757Z,19.75
2018-05-27T23:57:12.206Z,19.68
